createdAt,value
2019-05-17T00:02:26.414Z,0.90
2019-05-17T00:04:56.867Z,0.90
2019-05-17T00:07:32.557Z,0.87
2019-05-17T00:10:02.692Z,0.87
2019-05-17T00:12:32.348Z,0.73
2019-05-17T00:15:07.095Z,0.80
2019-05-17T00:17:49.219Z,0.80
2019-05-17T00:20:26.632Z,0.90
2019-05-17T00:22:57.397Z,0.80
2019-05-17T00:25:27.517Z,0.83
2019-05-17T00:28:41.570Z,0.80
2019-05-17T00:31:11.906Z,0.90
2019-05-17T00:33:41.583Z,0.90
2019-05-17T00:36:13.150Z,0.90
2019-05-17T00:38:50.954Z,0.90
2019-05-17T00:41:22.825Z,0.70
2019-05-17T00:43:54.225Z,0.70
2019-05-17T00:46:32.843Z,0.90
2019-05-17T00:49:06.742Z,0.80
2019-05-17T00:51:36.917Z,0.80
2019-05-17T00:54:09.595Z,0.90
2019-05-17T00:56:42.635Z,0.90
2019-05-17T00:59:18.684Z,0.90
2019-05-17T01:01:49.342Z,0.80
2019-05-17T01:04:20.036Z,0.90
2019-05-17T01:06:49.793Z,0.90
2019-05-17T01:09:27.324Z,0.80
2019-05-17T01:12:01.926Z,0.90
2019-05-17T01:14:46.569Z,0.90
2019-05-17T01:17:16.807Z,0.90
2019-05-17T01:19:57.206Z,0.90
2019-05-17T01:22:28.275Z,0.90
2019-05-17T01:24:58.655Z,0.80
2019-05-17T01:27:31.115Z,0.80
2019-05-17T01:30:13.001Z,0.80
2019-05-17T01:32:43.315Z,0.80
2019-05-17T01:35:17.001Z,0.73
2019-05-17T01:37:47.706Z,0.90
2019-05-17T01:40:18.627Z,0.90
2019-05-17T01:42:48.306Z,0.80
2019-05-17T01:45:18.587Z,0.73
2019-05-17T01:47:51.096Z,0.87
2019-05-17T01:50:21.188Z,0.90
2019-05-17T01:52:51.103Z,0.80
2019-05-17T01:55:22.861Z,0.90
2019-05-17T01:58:03.026Z,0.80
2019-05-17T02:00:46.450Z,0.90
2019-05-17T02:03:14.655Z,0.90
2019-05-17T02:05:44.170Z,0.70
2019-05-17T02:08:13.821Z,1.00
2019-05-17T02:10:46.592Z,0.90
2019-05-17T02:13:16.572Z,0.80
2019-05-17T02:15:51.492Z,0.90
2019-05-17T02:18:21.915Z,0.70
2019-05-17T02:20:53.588Z,0.90
2019-05-17T02:23:23.203Z,0.90
2019-05-17T02:25:57.156Z,0.80
2019-05-17T02:28:27.975Z,1.00
2019-05-17T02:30:58.650Z,0.90
2019-05-17T02:33:28.351Z,1.03
2019-05-17T02:35:57.962Z,0.90
2019-05-17T02:38:27.570Z,0.87
2019-05-17T02:40:57.326Z,0.77
2019-05-17T02:43:33.878Z,0.83
2019-05-17T02:46:04.136Z,0.80
2019-05-17T02:48:42.784Z,0.80
2019-05-17T02:51:13.310Z,0.90
2019-05-17T02:53:43.452Z,0.80
2019-05-17T02:56:16.210Z,0.90
2019-05-17T02:58:45.906Z,0.80
2019-05-17T03:01:17.568Z,0.90
2019-05-17T03:03:47.429Z,0.80
2019-05-17T03:06:17.928Z,0.70
2019-05-17T03:08:52.262Z,0.90
2019-05-17T03:11:22.678Z,0.90
2019-05-17T03:14:35.874Z,0.90
2019-05-17T03:17:05.587Z,0.80
2019-05-17T03:19:43.723Z,0.70
2019-05-17T03:22:17.511Z,0.90
2019-05-17T03:25:13.208Z,0.90
2019-05-17T03:27:42.863Z,0.87
2019-05-17T03:30:16.909Z,0.80
2019-05-17T03:32:47.724Z,0.80
2019-05-17T03:35:27.346Z,0.70
2019-05-17T03:37:58.012Z,0.90
2019-05-17T03:41:17.151Z,0.80
2019-05-17T03:43:30.640Z,0.90
2019-05-17T03:46:02.731Z,0.90
2019-05-17T03:48:33.364Z,0.80
2019-05-17T03:51:03.059Z,0.93
2019-05-17T03:53:33.661Z,0.83
2019-05-17T03:56:05.124Z,0.80
2019-05-17T03:58:38.946Z,0.80
2019-05-17T04:01:08.597Z,0.90
2019-05-17T04:03:43.100Z,1.07
2019-05-17T04:06:13.351Z,0.70
2019-05-17T04:08:43.087Z,0.77
2019-05-17T04:11:25.776Z,0.73
2019-05-17T04:13:44.693Z,0.80
2019-05-17T04:16:14.512Z,0.80
2019-05-17T04:18:46.009Z,0.80
2019-05-17T04:21:23.395Z,0.80
2019-05-17T04:24:19.429Z,0.80
2019-05-17T04:26:52.005Z,0.70
2019-05-17T04:29:22.687Z,0.70
2019-05-17T04:31:54.637Z,0.80
2019-05-17T04:34:24.384Z,0.70
2019-05-17T04:36:54.056Z,0.80
2019-05-17T04:39:23.859Z,0.80
2019-05-17T04:41:54.920Z,0.77
2019-05-17T04:44:24.691Z,0.80
2019-05-17T04:46:54.182Z,0.80
2019-05-17T04:49:24.456Z,0.90
2019-05-17T04:51:54.246Z,0.90
2019-05-17T04:54:24.056Z,1.77
2019-05-17T04:56:54.197Z,0.90
2019-05-17T04:59:24.478Z,0.70
2019-05-17T05:01:54.390Z,0.80
2019-05-17T05:04:23.950Z,1.23
2019-05-17T05:06:53.467Z,0.70
2019-05-17T05:09:23.565Z,0.80
2019-05-17T05:12:00.826Z,0.80
2019-05-17T05:14:24.829Z,0.70
2019-05-17T05:16:54.259Z,0.80
2019-05-17T05:19:23.755Z,0.63
2019-05-17T05:21:53.946Z,0.73
2019-05-17T05:24:23.447Z,0.70
2019-05-17T05:26:53.144Z,0.70
2019-05-17T05:29:22.519Z,0.80
2019-05-17T05:31:52.219Z,0.80
2019-05-17T05:34:22.013Z,0.80
2019-05-17T05:36:52.572Z,0.90
2019-05-17T05:39:22.827Z,0.70
2019-05-17T05:42:06.089Z,0.80
2019-05-17T05:44:23.654Z,0.80
2019-05-17T05:46:53.339Z,0.80
2019-05-17T05:49:23.119Z,0.73
2019-05-17T05:51:52.994Z,0.70
2019-05-17T05:54:22.613Z,0.80
2019-05-17T05:56:53.212Z,0.80
2019-05-17T05:59:22.757Z,0.80
2019-05-17T06:01:52.701Z,0.80
2019-05-17T06:04:22.356Z,0.70
2019-05-17T06:06:52.285Z,0.60
2019-05-17T06:09:22.526Z,0.70
2019-05-17T06:11:52.169Z,0.80
2019-05-17T06:14:21.747Z,0.60
2019-05-17T06:16:51.988Z,0.70
2019-05-17T06:19:22.447Z,0.70
2019-05-17T06:21:52.223Z,0.70
2019-05-17T06:24:22.802Z,0.70
2019-05-17T06:26:52.572Z,0.80
2019-05-17T06:29:22.589Z,0.77
2019-05-17T06:31:52.257Z,0.70
2019-05-17T06:34:22.468Z,0.70
2019-05-17T06:36:52.831Z,0.63
2019-05-17T06:39:22.567Z,0.60
2019-05-17T06:41:52.335Z,0.80
2019-05-17T06:44:21.776Z,0.80
2019-05-17T06:46:51.899Z,0.70
2019-05-17T06:49:22.553Z,0.67
2019-05-17T06:51:52.623Z,0.60
2019-05-17T06:54:22.930Z,0.70
2019-05-17T06:56:52.715Z,0.73
2019-05-17T06:59:22.220Z,0.50
2019-05-17T07:01:52.289Z,0.97
2019-05-17T07:04:21.726Z,0.70
2019-05-17T07:07:10.792Z,0.60
2019-05-17T07:09:40.545Z,0.70
2019-05-17T07:12:10.628Z,0.73
2019-05-17T07:14:40.617Z,0.70
2019-05-17T07:17:10.056Z,0.67
2019-05-17T07:19:40.175Z,1.37
2019-05-17T07:22:09.733Z,0.60
2019-05-17T07:24:39.800Z,0.60
2019-05-17T07:27:10.115Z,0.70
2019-05-17T07:29:40.461Z,0.70
2019-05-17T07:32:09.971Z,0.60
2019-05-17T07:34:40.114Z,0.70
2019-05-17T07:37:10.460Z,1.03
2019-05-17T07:39:42.284Z,0.60
2019-05-17T07:42:12.349Z,0.67
2019-05-17T07:44:44.085Z,0.60
2019-05-17T07:47:14.084Z,0.60
2019-05-17T07:49:44.110Z,0.60
2019-05-17T07:52:13.876Z,0.60
2019-05-17T07:54:43.558Z,0.60
2019-05-17T07:57:15.601Z,0.70
2019-05-17T07:59:47.559Z,0.60
2019-05-17T08:02:30.678Z,0.60
2019-05-17T08:05:06.261Z,0.60
2019-05-17T08:07:41.966Z,0.50
2019-05-17T08:10:12.775Z,0.60
2019-05-17T08:12:42.612Z,0.60
2019-05-17T08:15:12.504Z,0.60
2019-05-17T08:17:42.525Z,0.60
2019-05-17T08:20:13.224Z,4.60
2019-05-17T08:22:42.841Z,0.60
2019-05-17T08:25:13.496Z,0.60
2019-05-17T08:27:44.307Z,0.53
2019-05-17T08:30:17.030Z,0.60
2019-05-17T08:32:46.797Z,0.60
2019-05-17T08:35:17.009Z,0.60
2019-05-17T08:37:46.764Z,0.60
2019-05-17T08:40:20.039Z,0.60
2019-05-17T08:42:49.888Z,0.60
2019-05-17T08:45:20.773Z,0.60
2019-05-17T08:47:53.378Z,0.50
2019-05-17T08:50:24.322Z,0.50
2019-05-17T08:52:54.040Z,0.60
2019-05-17T08:55:23.761Z,0.53
2019-05-17T08:57:54.247Z,0.57
2019-05-17T09:00:24.507Z,27.50
2019-05-17T09:02:54.477Z,26.77
2019-05-17T09:05:25.045Z,28.13
2019-05-17T09:07:55.744Z,25.43
2019-05-17T09:10:26.481Z,24.73
2019-05-17T09:12:56.434Z,24.80
2019-05-17T09:15:26.510Z,24.43
2019-05-17T09:17:56.496Z,23.60
2019-05-17T09:20:26.667Z,23.07
2019-05-17T09:22:56.972Z,17.07
2019-05-17T09:25:27.109Z,13.83
2019-05-17T09:27:56.923Z,13.20
2019-05-17T09:30:31.401Z,13.23
2019-05-17T09:33:00.451Z,14.57
2019-05-17T09:35:30.656Z,14.57
2019-05-17T09:38:00.702Z,14.87
2019-05-17T09:40:31.089Z,14.63
2019-05-17T09:43:03.925Z,12.30
2019-05-17T09:45:35.012Z,10.40
2019-05-17T09:48:05.217Z,12.17
2019-05-17T09:50:35.854Z,11.60
2019-05-17T09:53:05.655Z,11.97
2019-05-17T09:55:35.645Z,13.10
2019-05-17T09:58:06.972Z,13.83
2019-05-17T10:00:38.095Z,14.80
2019-05-17T10:03:10.036Z,12.57
2019-05-17T10:05:41.059Z,11.73
2019-05-17T10:08:11.177Z,12.00
2019-05-17T10:10:41.465Z,12.53
2019-05-17T10:13:11.886Z,13.23
2019-05-17T10:15:42.060Z,13.60
2019-05-17T10:18:15.439Z,12.70
2019-05-17T10:20:46.010Z,12.50
2019-05-17T10:23:19.506Z,14.83
2019-05-17T10:25:49.029Z,13.30
2019-05-17T10:28:20.543Z,13.67
2019-05-17T10:30:52.352Z,12.37
2019-05-17T10:33:22.251Z,12.10
2019-05-17T10:35:52.726Z,10.53
2019-05-17T10:38:22.607Z,12.77
2019-05-17T10:40:52.590Z,12.83
2019-05-17T10:43:46.525Z,13.90
2019-05-17T10:46:16.733Z,13.33
2019-05-17T10:48:46.959Z,14.47
2019-05-17T10:51:17.042Z,13.90
2019-05-17T10:53:47.121Z,14.07
2019-05-17T10:56:19.438Z,13.03
2019-05-17T10:58:49.349Z,14.10
2019-05-17T11:01:20.194Z,15.37
2019-05-17T11:03:50.410Z,13.53
2019-05-17T11:06:20.428Z,14.17
2019-05-17T11:08:50.586Z,15.03
2019-05-17T11:11:20.687Z,15.30
2019-05-17T11:13:53.023Z,17.23
2019-05-17T11:16:22.248Z,13.70
2019-05-17T11:18:53.197Z,15.80
2019-05-17T11:21:23.137Z,13.80
2019-05-17T11:23:53.404Z,14.50
2019-05-17T11:26:23.279Z,14.90
2019-05-17T11:28:53.435Z,14.90
2019-05-17T11:31:24.185Z,15.23
2019-05-17T11:33:54.214Z,12.30
2019-05-17T11:36:23.577Z,11.00
2019-05-17T11:38:52.837Z,11.03
2019-05-17T11:41:22.426Z,11.37
2019-05-17T11:43:52.236Z,11.00
2019-05-17T11:46:35.330Z,10.83
2019-05-17T11:48:53.470Z,11.67
2019-05-17T11:51:22.937Z,12.03
2019-05-17T11:53:52.317Z,11.70
2019-05-17T11:56:22.120Z,11.13
2019-05-17T11:58:51.759Z,11.40
2019-05-17T12:01:21.622Z,11.33
2019-05-17T12:03:51.498Z,11.50
2019-05-17T12:06:21.006Z,10.63
2019-05-17T12:08:50.380Z,11.00
2019-05-17T12:11:20.081Z,11.17
2019-05-17T12:13:49.501Z,10.50
2019-05-17T12:16:19.305Z,10.70
2019-05-17T12:18:48.761Z,10.90
2019-05-17T12:21:18.526Z,10.87
2019-05-17T12:23:48.148Z,12.23
2019-05-17T12:26:17.872Z,10.90
2019-05-17T12:28:47.377Z,10.80
2019-05-17T12:31:19.230Z,10.67
2019-05-17T12:33:48.607Z,11.23
2019-05-17T12:36:18.063Z,10.70
2019-05-17T12:38:49.093Z,10.53
2019-05-17T12:41:19.050Z,12.20
2019-05-17T12:43:48.412Z,12.13
2019-05-17T12:46:18.190Z,12.90
2019-05-17T12:48:47.553Z,12.27
2019-05-17T12:51:16.880Z,14.23
2019-05-17T12:53:46.513Z,12.77
2019-05-17T12:56:15.902Z,13.57
2019-05-17T12:58:46.326Z,11.83
2019-05-17T13:01:16.093Z,11.30
2019-05-17T13:03:45.892Z,10.73
2019-05-17T13:06:15.496Z,10.80
2019-05-17T13:08:45.428Z,11.13
2019-05-17T13:11:15.165Z,11.43
2019-05-17T13:13:44.682Z,19.03
2019-05-17T13:16:18.002Z,11.03
2019-05-17T13:18:46.823Z,12.00
2019-05-17T13:21:16.491Z,10.57
2019-05-17T13:23:45.866Z,10.80
2019-05-17T13:26:15.470Z,10.63
2019-05-17T13:28:45.306Z,10.07
2019-05-17T13:31:15.093Z,9.67
2019-05-17T13:33:44.601Z,10.73
2019-05-17T13:36:13.883Z,10.20
2019-05-17T13:38:43.622Z,9.90
2019-05-17T13:41:12.908Z,9.07
2019-05-17T13:43:43.277Z,9.13
2019-05-17T13:46:13.628Z,9.73
2019-05-17T13:48:43.904Z,9.57
2019-05-17T13:51:13.704Z,9.20
2019-05-17T13:53:43.002Z,9.43
2019-05-17T13:56:12.719Z,9.10
2019-05-17T13:58:42.021Z,8.67
2019-05-17T14:01:11.856Z,10.47
2019-05-17T14:03:41.507Z,10.27
2019-05-17T14:06:10.848Z,10.77
2019-05-17T14:08:40.189Z,11.63
2019-05-17T14:11:09.520Z,11.10
2019-05-17T14:13:38.948Z,10.40
2019-05-17T14:16:08.735Z,10.17
2019-05-17T14:18:38.193Z,11.23
2019-05-17T14:21:07.745Z,11.37
2019-05-17T14:23:37.511Z,12.87
2019-05-17T14:26:07.059Z,11.27
2019-05-17T14:28:36.393Z,11.83
2019-05-17T14:31:06.301Z,12.30
2019-05-17T14:33:35.728Z,10.80
2019-05-17T14:36:05.857Z,11.17
2019-05-17T14:38:36.964Z,11.03
2019-05-17T14:41:08.497Z,10.40
2019-05-17T14:43:38.284Z,10.73
2019-05-17T14:46:07.568Z,11.03
2019-05-17T14:48:38.106Z,11.40
2019-05-17T14:51:08.505Z,12.30
2019-05-17T14:53:38.222Z,12.70
2019-05-17T14:56:07.775Z,13.03
2019-05-17T14:58:46.344Z,11.97
2019-05-17T15:01:16.266Z,11.67
2019-05-17T15:03:46.587Z,11.40
2019-05-17T15:06:16.682Z,10.63
2019-05-17T15:08:46.454Z,10.90
2019-05-17T15:11:16.902Z,13.50
2019-05-17T15:13:46.981Z,11.57
2019-05-17T15:16:16.368Z,10.40
2019-05-17T15:18:45.983Z,11.10
2019-05-17T15:21:15.332Z,11.47
2019-05-17T15:23:44.612Z,10.80
2019-05-17T15:26:15.141Z,11.03
2019-05-17T15:28:44.865Z,11.20
2019-05-17T15:31:14.179Z,12.73
2019-05-17T15:33:45.512Z,10.00
2019-05-17T15:36:14.873Z,12.10
2019-05-17T15:38:44.501Z,10.93
2019-05-17T15:41:14.314Z,11.43
2019-05-17T15:43:45.495Z,13.37
2019-05-17T15:46:14.794Z,11.80
2019-05-17T15:48:44.646Z,11.87
2019-05-17T15:51:14.028Z,11.47
2019-05-17T15:53:43.481Z,11.20
2019-05-17T15:56:13.494Z,13.47
2019-05-17T15:58:43.153Z,10.70
2019-05-17T16:01:13.027Z,10.23
2019-05-17T16:03:42.469Z,10.80
2019-05-17T16:06:13.105Z,11.03
2019-05-17T16:08:42.455Z,10.93
2019-05-17T16:11:11.819Z,12.03
2019-05-17T16:13:40.411Z,12.97
2019-05-17T16:16:09.808Z,11.37
2019-05-17T16:18:39.816Z,11.80
2019-05-17T16:21:09.443Z,11.20
2019-05-17T16:23:39.264Z,10.83
2019-05-17T16:26:08.667Z,11.43
2019-05-17T16:28:38.229Z,11.10
2019-05-17T16:31:07.632Z,11.40
2019-05-17T16:33:37.183Z,12.67
2019-05-17T16:36:06.856Z,13.13
2019-05-17T16:38:36.937Z,11.30
2019-05-17T16:41:06.688Z,11.07
2019-05-17T16:43:35.934Z,12.47
2019-05-17T16:46:05.384Z,12.97
2019-05-17T16:48:35.198Z,11.17
2019-05-17T16:51:05.548Z,11.93
2019-05-17T16:53:35.641Z,10.57
2019-05-17T16:56:05.180Z,12.20
2019-05-17T16:58:34.887Z,12.03
2019-05-17T17:01:04.769Z,11.60
2019-05-17T17:03:44.130Z,11.30
2019-05-17T17:06:10.131Z,12.53
2019-05-17T17:08:38.267Z,14.77
2019-05-17T17:11:07.716Z,11.03
2019-05-17T17:13:37.084Z,11.13
2019-05-17T17:16:06.736Z,11.33
2019-05-17T17:18:37.151Z,11.90
2019-05-17T17:21:06.820Z,11.00
2019-05-17T17:23:36.317Z,11.50
2019-05-17T17:26:06.328Z,11.67
2019-05-17T17:28:36.489Z,11.53
2019-05-17T17:31:07.774Z,11.57
2019-05-17T17:33:37.553Z,11.70
2019-05-17T17:36:07.391Z,10.90
2019-05-17T17:38:37.246Z,13.40
2019-05-17T17:41:07.291Z,10.83
2019-05-17T17:43:37.421Z,10.90
2019-05-17T17:46:06.898Z,10.50
2019-05-17T17:48:36.328Z,11.70
2019-05-17T17:51:05.971Z,12.10
2019-05-17T17:53:35.457Z,10.33
2019-05-17T17:56:05.426Z,10.40
2019-05-17T17:58:35.735Z,12.13
2019-05-17T18:01:05.359Z,13.93
2019-05-17T18:03:34.819Z,10.97
2019-05-17T18:06:04.691Z,12.00
2019-05-17T18:08:34.782Z,12.87
2019-05-17T18:11:04.442Z,12.53
2019-05-17T18:13:33.724Z,12.40
2019-05-17T18:16:03.173Z,13.40
2019-05-17T18:18:32.658Z,12.07
2019-05-17T18:21:03.294Z,11.97
2019-05-17T18:23:33.842Z,11.63
2019-05-17T18:26:03.730Z,12.90
2019-05-17T18:28:33.096Z,11.00
2019-05-17T18:31:03.451Z,13.13
2019-05-17T18:33:32.834Z,12.30
2019-05-17T18:36:02.879Z,11.37
2019-05-17T18:38:35.022Z,11.10
2019-05-17T18:41:08.529Z,10.67
2019-05-17T18:43:38.333Z,10.97
2019-05-17T18:46:08.393Z,10.53
2019-05-17T18:48:37.882Z,11.03
2019-05-17T18:51:07.737Z,10.73
2019-05-17T18:53:37.400Z,10.20
2019-05-17T18:56:07.121Z,12.77
2019-05-17T18:58:39.512Z,10.60
2019-05-17T19:01:08.865Z,11.13
2019-05-17T19:03:38.938Z,11.17
2019-05-17T19:06:09.528Z,12.07
2019-05-17T19:08:39.345Z,11.67
2019-05-17T19:11:09.819Z,12.97
2019-05-17T19:13:39.176Z,13.63
2019-05-17T19:16:08.709Z,11.93
2019-05-17T19:18:38.244Z,14.57
2019-05-17T19:21:07.900Z,12.60
2019-05-17T19:23:37.816Z,12.33
2019-05-17T19:26:07.949Z,14.47
2019-05-17T19:28:37.348Z,12.60
2019-05-17T19:31:08.047Z,13.20
2019-05-17T19:33:37.883Z,13.37
2019-05-17T19:36:07.756Z,12.90
2019-05-17T19:38:37.726Z,13.57
2019-05-17T19:41:07.327Z,16.87
2019-05-17T19:43:37.268Z,14.57
2019-05-17T19:46:06.621Z,15.83
2019-05-17T19:48:39.258Z,17.80
2019-05-17T19:51:08.537Z,14.97
2019-05-17T19:53:39.300Z,16.00
2019-05-17T19:56:09.303Z,15.93
2019-05-17T19:58:39.183Z,16.47
2019-05-17T20:01:08.572Z,16.77
2019-05-17T20:03:40.879Z,17.00
2019-05-17T20:06:10.806Z,17.10
2019-05-17T20:08:41.144Z,21.13
2019-05-17T20:11:10.695Z,16.43
2019-05-17T20:13:40.865Z,18.57
2019-05-17T20:16:12.695Z,17.90
2019-05-17T20:18:42.122Z,18.40
2019-05-17T20:21:12.551Z,20.40
2019-05-17T20:23:43.767Z,19.40
2019-05-17T20:26:13.890Z,19.50
2019-05-17T20:28:43.681Z,18.70
2019-05-17T20:31:13.262Z,24.33
2019-05-17T20:33:43.209Z,22.47
2019-05-17T20:36:13.196Z,19.57
2019-05-17T20:38:42.986Z,21.10
2019-05-17T20:41:13.201Z,24.30
2019-05-17T20:43:43.687Z,21.23
2019-05-17T20:46:13.036Z,24.70
2019-05-17T20:48:42.835Z,23.63
2019-05-17T20:51:12.233Z,23.43
2019-05-17T20:53:42.061Z,20.83
2019-05-17T20:56:11.442Z,23.27
2019-05-17T20:58:40.877Z,25.63
2019-05-17T21:01:10.864Z,22.33
2019-05-17T21:03:40.179Z,25.43
2019-05-17T21:06:10.912Z,23.33
2019-05-17T21:08:46.156Z,24.57
2019-05-17T21:11:14.421Z,26.53
2019-05-17T21:13:43.824Z,25.47
2019-05-17T21:16:14.552Z,24.00
2019-05-17T21:18:44.422Z,25.47
2019-05-17T21:21:14.530Z,24.70
2019-05-17T21:23:44.595Z,30.67
2019-05-17T21:26:15.023Z,25.47
2019-05-17T21:28:47.200Z,24.30
2019-05-17T21:31:17.264Z,32.07
2019-05-17T21:33:46.655Z,26.23
2019-05-17T21:36:16.391Z,28.37
2019-05-17T21:38:45.698Z,25.83
2019-05-17T21:41:15.751Z,27.37
2019-05-17T21:43:46.016Z,26.70
2019-05-17T21:46:15.497Z,26.10
2019-05-17T21:48:45.167Z,25.03
2019-05-17T21:51:15.108Z,26.77
2019-05-17T21:53:44.572Z,27.23
2019-05-17T21:56:14.086Z,30.10
2019-05-17T21:58:43.857Z,29.73
2019-05-17T22:01:18.247Z,26.77
2019-05-17T22:03:47.557Z,24.50
2019-05-17T22:06:17.273Z,28.47
2019-05-17T22:08:46.611Z,26.33
2019-05-17T22:11:16.013Z,25.27
2019-05-17T22:13:45.726Z,25.90
2019-05-17T22:16:19.436Z,28.60
2019-05-17T22:18:47.208Z,27.17
2019-05-17T22:21:17.333Z,28.47
2019-05-17T22:23:47.205Z,30.07
2019-05-17T22:26:16.665Z,29.53
2019-05-17T22:28:46.417Z,33.63
2019-05-17T22:31:15.846Z,29.40
2019-05-17T22:33:45.257Z,32.63
2019-05-17T22:36:14.631Z,30.27
2019-05-17T22:38:44.088Z,30.23
2019-05-17T22:41:13.376Z,27.80
2019-05-17T22:43:43.015Z,31.70
2019-05-17T22:46:13.205Z,32.07
2019-05-17T22:48:43.002Z,35.60
2019-05-17T22:51:13.432Z,33.20
2019-05-17T22:53:43.722Z,29.50
2019-05-17T22:56:13.255Z,31.23
2019-05-17T22:58:42.678Z,30.20
2019-05-17T23:01:12.284Z,29.20
2019-05-17T23:07:10.903Z,28.73
2019-05-17T23:09:42.268Z,29.93
2019-05-17T23:12:11.988Z,28.03
2019-05-17T23:14:41.425Z,29.10
2019-05-17T23:17:12.634Z,25.83
2019-05-17T23:19:42.508Z,26.73
2019-05-17T23:22:11.861Z,25.77
2019-05-17T23:24:41.770Z,29.10
2019-05-17T23:27:11.158Z,24.33
2019-05-17T23:29:41.327Z,23.63
2019-05-17T23:32:10.873Z,28.63
2019-05-17T23:34:40.754Z,24.00
2019-05-17T23:37:10.857Z,22.83
2019-05-17T23:39:41.448Z,23.17
2019-05-17T23:42:10.939Z,27.27
2019-05-17T23:44:42.349Z,21.23
2019-05-17T23:47:12.395Z,21.03
2019-05-17T23:49:42.016Z,23.47
2019-05-17T23:52:12.302Z,23.80
2019-05-17T23:54:41.962Z,28.47
2019-05-17T23:57:11.637Z,23.10
2019-05-17T23:59:41.163Z,22.50
